Time;durP1;ratioP1;P1;durP2;ratioP2;P2;SDS_P1;SDS_P2;PMS_P1;PMS_P2;Temp;Humidity;BMP_temperature;BMP_pressure;BME280_temperature;BME280_humidity;BME280_pressure;Samples;Min_cycle;Max_cycle;Signal;HPM_P1;HPM_P2
2023/11/02 00:02:29;;;;;;;12.32;1.50;;;;;;;12.84;100.00;98935.78;5265276;28;20028;-71
2023/11/02 00:05:00;;;;;;;8.23;1.50;;;;;;;12.78;100.00;98925.09;5268795;28;20030;-72
2023/11/02 00:07:31;;;;;;;8.05;1.15;;;;;;;12.78;100.00;98920.53;5269195;28;20024;-72
2023/11/02 00:10:03;;;;;;;8.30;1.45;;;;;;;12.66;100.00;98901.66;5266425;28;20016;-71
2023/11/02 00:12:33;;;;;;;26.10;1.70;;;;;;;12.83;100.00;98891.06;5268721;28;20051;-71
2023/11/02 00:15:04;;;;;;;7.38;1.48;;;;;;;12.78;100.00;98890.94;5268909;28;20118;-72
2023/11/02 00:17:38;;;;;;;5.50;1.30;;;;;;;12.73;100.00;98895.38;5270876;28;20028;-72
2023/11/02 00:20:16;;;;;;;7.85;1.85;;;;;;;12.77;100.00;98880.41;5273233;28;20034;-71
2023/11/02 00:22:48;;;;;;;8.25;1.33;;;;;;;12.74;100.00;98875.47;5270973;28;20024;-71
2023/11/02 00:25:33;;;;;;;11.68;1.58;;;;;;;12.71;100.00;98871.41;5265741;28;20419;-71
2023/11/02 00:28:08;;;;;;;9.00;1.35;;;;;;;12.81;100.00;98874.34;5266689;28;20457;-71
2023/11/02 00:30:39;;;;;;;12.38;1.25;;;;;;;12.69;100.00;98847.38;5267974;28;20575;-72
2023/11/02 00:33:13;;;;;;;6.05;1.33;;;;;;;12.86;100.00;98842.19;5270189;28;20047;-72
2023/11/02 00:35:45;;;;;;;7.80;1.52;;;;;;;12.79;100.00;98835.25;5272868;28;20020;-71
2023/11/02 00:38:24;;;;;;;7.57;1.58;;;;;;;12.92;100.00;98821.63;5269142;28;20020;-71
2023/11/02 00:40:56;;;;;;;7.68;1.35;;;;;;;12.87;100.00;98816.91;5259214;28;20016;-72
2023/11/02 00:43:28;;;;;;;8.25;2.35;;;;;;;12.77;100.00;98805.91;5265603;28;20108;-72
2023/11/02 00:45:59;;;;;;;11.90;1.30;;;;;;;12.88;100.00;98793.53;5265036;28;20024;-71
2023/11/02 00:48:32;;;;;;;20.40;1.73;;;;;;;12.84;100.00;98773.50;5271022;28;20183;-71
2023/11/02 00:51:17;;;;;;;8.35;1.55;;;;;;;12.86;100.00;98777.63;5270785;28;20100;-72
2023/11/02 00:53:53;;;;;;;10.82;1.67;;;;;;;12.87;100.00;98773.03;5267421;28;20483;-70
2023/11/02 00:56:28;;;;;;;8.80;1.23;;;;;;;12.81;100.00;98771.28;5264002;28;20046;-72
2023/11/02 00:59:00;;;;;;;9.35;1.30;;;;;;;12.85;100.00;98769.75;5270575;27;20019;-72
2023/11/02 01:01:31;;;;;;;10.55;1.35;;;;;;;12.84;100.00;98762.72;5264737;28;20027;-71
2023/11/02 01:04:05;;;;;;;11.50;1.70;;;;;;;12.87;100.00;98738.88;5266092;28;20052;-72
2023/11/02 01:06:36;;;;;;;9.52;1.50;;;;;;;12.98;100.00;98729.19;5268614;28;20362;-71
2023/11/02 01:09:16;;;;;;;6.82;1.67;;;;;;;12.93;100.00;98726.38;5267886;28;20016;-71
2023/11/02 01:11:46;;;;;;;9.38;1.70;;;;;;;12.96;100.00;98715.97;5265475;28;20051;-71
2023/11/02 01:14:22;;;;;;;7.05;1.30;;;;;;;12.92;100.00;98703.19;5264460;28;20043;-71
2023/11/02 01:16:53;;;;;;;12.55;1.83;;;;;;;12.89;100.00;98701.78;5265446;28;20032;-71
2023/11/02 01:19:51;;;;;;;8.35;1.42;;;;;;;13.00;100.00;98686.69;5264960;28;20020;-71
2023/11/02 01:22:32;;;;;;;8.15;1.15;;;;;;;13.03;100.00;98669.25;5261666;28;20043;-72
2023/11/02 01:25:06;;;;;;;8.63;1.75;;;;;;;12.94;100.00;98647.25;5260642;28;20028;-71
2023/11/02 01:27:37;;;;;;;8.77;1.80;;;;;;;13.00;100.00;98635.53;5267247;28;20106;-72
2023/11/02 01:30:17;;;;;;;8.98;1.83;;;;;;;12.98;100.00;98613.44;5265159;28;20422;-72
2023/11/02 01:32:47;;;;;;;9.88;1.25;;;;;;;12.91;100.00;98607.38;5263436;28;20066;-71
2023/11/02 01:35:42;;;;;;;6.65;1.50;;;;;;;12.73;100.00;98584.09;5266421;28;20036;-72
2023/11/02 01:38:13;;;;;;;8.32;1.48;;;;;;;12.82;100.00;98557.66;5265079;28;20031;-72
2023/11/02 01:40:52;;;;;;;9.02;0.95;;;;;;;12.83;100.00;98541.28;5265606;28;20550;-72
2023/11/02 01:43:38;;;;;;;10.68;1.70;;;;;;;12.80;100.00;98517.56;5260448;28;20020;-72
2023/11/02 01:46:20;;;;;;;7.63;1.42;;;;;;;12.84;100.00;98499.84;5265123;28;20520;-72
2023/11/02 01:49:03;;;;;;;8.02;1.30;;;;;;;12.92;100.00;98480.66;5266298;28;20489;-72
2023/11/02 01:51:43;;;;;;;10.52;1.30;;;;;;;12.99;100.00;98460.84;5261057;28;20048;-72
2023/11/02 01:54:31;;;;;;;7.25;1.20;;;;;;;12.92;100.00;98459.13;5265108;28;20397;-72
2023/11/02 01:57:05;;;;;;;8.30;1.60;;;;;;;13.07;100.00;98461.28;5266276;28;20024;-72
2023/11/02 01:59:40;;;;;;;11.82;1.90;;;;;;;13.08;100.00;98451.34;5266192;28;20027;-71
2023/11/02 02:02:14;;;;;;;8.45;1.20;;;;;;;13.13;100.00;98446.88;5266004;28;20401;-72
2023/11/02 02:04:53;;;;;;;8.20;1.48;;;;;;;13.12;100.00;98425.59;5264560;28;20032;-72
2023/11/02 02:07:38;;;;;;;12.38;1.27;;;;;;;13.17;100.00;98394.19;5258995;28;20380;-72
2023/11/02 02:10:32;;;;;;;7.97;1.70;;;;;;;13.17;100.00;98366.44;5261553;28;20020;-71
2023/11/02 02:13:28;;;;;;;4.90;0.98;;;;;;;13.27;100.00;98355.06;5261565;28;20028;-71
2023/11/02 02:16:08;;;;;;;10.90;1.33;;;;;;;13.21;100.00;98329.91;5259703;28;20102;-72
2023/11/02 02:18:51;;;;;;;6.68;1.60;;;;;;;13.11;100.00;98275.91;5263986;28;20104;-71
2023/11/02 02:21:41;;;;;;;11.45;1.27;;;;;;;13.10;100.00;98311.94;5263668;28;20028;-72
2023/11/02 02:24:22;;;;;;;9.80;1.42;;;;;;;13.04;100.00;98300.28;5262931;28;20016;-72
2023/11/02 02:27:19;;;;;;;6.25;0.98;;;;;;;13.10;100.00;98295.78;5263004;28;20485;-72
2023/11/02 02:30:02;;;;;;;4.63;1.00;;;;;;;13.10;100.00;98288.56;5264737;28;20031;-72
2023/11/02 02:33:01;;;;;;;4.82;1.23;;;;;;;13.31;100.00;98261.97;5265065;28;20028;-72
2023/11/02 02:35:55;;;;;;;7.72;1.02;;;;;;;13.25;100.00;98265.63;5264500;28;20481;-72
2023/11/02 02:38:38;;;;;;;7.50;1.38;;;;;;;13.23;100.00;98238.16;5260364;28;20026;-72
2023/11/02 02:41:12;;;;;;;5.72;1.08;;;;;;;13.34;100.00;98194.16;5264119;28;20024;-71
2023/11/02 02:43:45;;;;;;;5.87;1.20;;;;;;;13.35;100.00;98120.38;5266864;28;20023;-72
2023/11/02 02:46:18;;;;;;;5.85;0.98;;;;;;;13.32;100.00;98091.28;5266197;28;20023;-71
2023/11/02 02:48:49;;;;;;;4.03;1.10;;;;;;;13.20;100.00;98054.50;5264794;28;20028;-72
2023/11/02 02:51:20;;;;;;;8.48;1.30;;;;;;;13.31;100.00;97982.78;5263827;28;20023;-72
2023/11/02 02:53:54;;;;;;;5.90;0.70;;;;;;;13.26;100.00;98030.38;5257737;28;20024;-71
2023/11/02 02:56:26;;;;;;;2.73;0.77;;;;;;;13.18;100.00;98071.97;5263701;28;20596;-72
2023/11/02 02:59:03;;;;;;;3.20;0.73;;;;;;;13.25;100.00;98071.78;5263263;28;20031;-72
2023/11/02 03:01:38;;;;;;;5.32;1.00;;;;;;;13.26;100.00;98105.75;5263591;28;20455;-71
2023/11/02 03:04:12;;;;;;;8.05;1.80;;;;;;;13.33;100.00;98093.72;5257896;28;20024;-71
2023/11/02 03:06:46;;;;;;;6.73;1.30;;;;;;;13.23;100.00;98100.84;5261794;28;20100;-71
2023/11/02 03:09:20;;;;;;;4.20;0.80;;;;;;;13.32;100.00;98092.09;5263086;28;20623;-71
2023/11/02 03:11:57;;;;;;;7.13;1.10;;;;;;;13.27;100.00;98089.34;5262897;28;20512;-72
2023/11/02 03:14:30;;;;;;;8.27;0.93;;;;;;;13.28;100.00;98092.84;5264391;28;20023;-71
2023/11/02 03:17:06;;;;;;;7.10;1.25;;;;;;;13.31;100.00;98057.34;5263596;28;20031;-71
2023/11/02 03:19:46;;;;;;;6.70;0.82;;;;;;;13.31;100.00;98014.28;5261058;28;20504;-71
2023/11/02 03:22:19;;;;;;;3.40;0.75;;;;;;;13.26;100.00;98023.09;5263289;28;20035;-72
2023/11/02 03:25:13;;;;;;;2.83;0.90;;;;;;;13.31;100.00;97981.97;5259899;28;20115;-72
2023/11/02 03:28:11;;;;;;;4.60;0.77;;;;;;;13.12;100.00;97930.31;5262752;28;20095;-72
2023/11/02 03:31:01;;;;;;;4.10;1.20;;;;;;;13.24;100.00;97925.59;5261764;28;20031;-72
2023/11/02 03:34:04;;;;;;;3.50;0.90;;;;;;;13.10;100.00;97910.91;5259957;28;20047;-72
2023/11/02 03:37:11;;;;;;;3.75;0.85;;;;;;;13.16;100.00;97889.19;5260842;28;20066;-72
2023/11/02 03:39:48;;;;;;;;;;;;;;;13.05;100.00;97886.63;5262530;28;20365;-72
2023/11/02 03:42:30;;;;;;;4.70;1.00;;;;;;;13.13;100.00;97889.69;5267185;28;20284;-72
2023/11/02 03:45:31;;;;;;;5.28;1.13;;;;;;;13.27;100.00;97905.47;5267186;28;20533;-72
2023/11/02 03:48:20;;;;;;;2.90;0.90;;;;;;;13.19;100.00;97883.28;5261067;28;20024;-72
2023/11/02 03:51:24;;;;;;;2.33;1.15;;;;;;;13.07;100.00;97896.09;5266469;28;20039;-72
2023/11/02 03:54:24;;;;;;;6.70;0.70;;;;;;;13.03;100.00;97897.66;5267792;28;20020;-72
2023/11/02 03:57:18;;;;;;;2.92;0.93;;;;;;;13.06;100.00;97862.16;5266740;28;20069;-72
2023/11/02 04:00:09;;;;;;;5.63;0.70;;;;;;;13.05;100.00;97886.63;5266269;28;20043;-72
2023/11/02 04:02:48;;;;;;;9.77;1.98;;;;;;;13.30;100.00;97849.19;5264581;28;20039;-72
2023/11/02 04:05:22;;;;;;;2.17;0.82;;;;;;;13.27;100.00;97857.00;5268823;28;20055;-72
2023/11/02 04:08:01;;;;;;;3.60;0.70;;;;;;;13.33;100.00;97847.88;5269151;28;20031;-72
2023/11/02 04:10:34;;;;;;;8.15;0.90;;;;;;;13.32;100.00;97838.19;5267647;28;20081;-72
2023/11/02 04:13:16;;;;;;;3.33;0.75;;;;;;;13.31;100.00;97837.38;5265507;28;20411;-72
2023/11/02 04:15:46;;;;;;;1.92;0.38;;;;;;;13.38;100.00;97837.16;5268569;28;20081;-72
2023/11/02 04:18:17;;;;;;;1.65;0.80;;;;;;;13.46;100.00;97815.97;5267557;28;20439;-72
2023/11/02 04:20:54;;;;;;;5.55;1.02;;;;;;;13.54;100.00;97805.75;5267131;28;20503;-72
2023/11/02 04:23:24;;;;;;;2.95;0.80;;;;;;;13.57;100.00;97798.00;5261849;28;20024;-72
2023/11/02 04:25:55;;;;;;;4.28;0.93;;;;;;;13.56;100.00;97796.38;5265178;28;20499;-72
2023/11/02 04:28:26;;;;;;;6.25;0.90;;;;;;;13.42;100.00;97797.88;5268427;28;20016;-72
2023/11/02 04:30:56;;;;;;;4.88;0.98;;;;;;;13.55;100.00;97786.66;5266832;28;20016;-72
2023/11/02 04:33:27;;;;;;;4.18;0.73;;;;;;;13.42;100.00;97790.63;5265660;28;20046;-72
2023/11/02 04:35:58;;;;;;;6.75;1.30;;;;;;;13.50;100.00;97785.81;5263822;28;20509;-72
2023/11/02 04:38:29;;;;;;;1.55;0.52;;;;;;;13.53;100.00;97796.06;5268355;28;20394;-72
2023/11/02 04:40:59;;;;;;;3.17;0.77;;;;;;;13.46;100.00;97786.34;5266678;28;20020;-72
2023/11/02 04:43:30;;;;;;;4.35;0.65;;;;;;;13.63;100.00;97766.50;5269220;28;20068;-72
2023/11/02 04:46:00;;;;;;;5.68;0.60;;;;;;;13.61;100.00;97761.38;5268912;28;20016;-72
2023/11/02 04:48:31;;;;;;;3.53;0.60;;;;;;;13.65;100.00;97749.00;5262958;28;20036;-72
2023/11/02 04:51:01;;;;;;;8.13;1.00;;;;;;;13.63;100.00;97753.03;5264532;28;20041;-73
2023/11/02 04:53:32;;;;;;;6.32;0.60;;;;;;;13.56;100.00;97744.38;5256306;28;20104;-73
2023/11/02 04:56:02;;;;;;;2.20;0.50;;;;;;;13.53;100.00;97732.25;5265811;28;20042;-73
2023/11/02 04:58:33;;;;;;;3.15;0.90;;;;;;;13.51;100.00;97726.31;5267357;28;20024;-73
2023/11/02 05:01:04;;;;;;;6.38;1.00;;;;;;;13.60;100.00;97705.88;5267279;28;20612;-73
2023/11/02 05:03:34;;;;;;;5.05;0.80;;;;;;;13.61;100.00;97699.44;5265605;28;20052;-73
2023/11/02 05:06:05;;;;;;;3.05;0.50;;;;;;;13.32;100.00;97693.63;5266623;28;20524;-73
2023/11/02 05:08:35;;;;;;;4.35;0.47;;;;;;;13.31;100.00;97685.81;5266202;28;20370;-73
2023/11/02 05:11:06;;;;;;;7.68;0.82;;;;;;;13.32;100.00;97674.78;5264581;28;21713;-73
2023/11/02 05:13:37;;;;;;;4.57;0.52;;;;;;;13.37;100.00;97672.09;5267126;28;20474;-73
2023/11/02 05:16:07;;;;;;;2.50;0.73;;;;;;;13.25;100.00;97670.69;5260558;28;20020;-73
2023/11/02 05:18:38;;;;;;;4.25;0.93;;;;;;;13.27;100.00;97684.72;5266054;28;20020;-73
2023/11/02 05:21:08;;;;;;;5.45;0.65;;;;;;;12.95;100.00;97678.28;5266402;28;20498;-73
2023/11/02 05:23:39;;;;;;;5.25;0.80;;;;;;;13.09;100.00;97669.75;5263621;28;20020;-73
2023/11/02 05:26:09;;;;;;;1.92;0.77;;;;;;;12.89;100.00;97656.97;5264240;28;20022;-73
2023/11/02 05:28:39;;;;;;;2.70;0.70;;;;;;;13.02;100.00;97651.16;5265452;28;20575;-73
2023/11/02 05:31:10;;;;;;;4.85;0.70;;;;;;;13.01;100.00;97651.41;5265358;28;20048;-73
2023/11/02 05:33:40;;;;;;;2.75;0.63;;;;;;;13.20;100.00;97637.28;5262694;28;20063;-73
2023/11/02 05:36:11;;;;;;;6.22;1.02;;;;;;;12.97;100.00;97634.97;5258939;28;20027;-73
2023/11/02 05:38:41;;;;;;;1.73;0.80;;;;;;;13.08;100.00;97615.13;5262576;28;20020;-73
2023/11/02 05:41:12;;;;;;;4.38;0.43;;;;;;;13.12;100.00;97596.56;5265768;28;20124;-73
2023/11/02 05:43:42;;;;;;;3.00;0.60;;;;;;;13.10;100.00;97596.00;5263894;28;20400;-73
2023/11/02 05:46:13;;;;;;;5.15;0.88;;;;;;;13.12;100.00;97577.75;5264258;28;20026;-73
2023/11/02 05:48:43;;;;;;;7.20;1.00;;;;;;;13.33;100.00;97586.75;5262027;28;20435;-73
2023/11/02 05:51:14;;;;;;;3.88;0.60;;;;;;;13.36;100.00;97576.25;5265743;28;20012;-73
2023/11/02 05:53:44;;;;;;;6.03;0.70;;;;;;;13.37;100.00;97567.09;5264303;28;20039;-73
2023/11/02 05:56:15;;;;;;;5.57;0.88;;;;;;;13.45;100.00;97563.06;5259911;28;20066;-73
2023/11/02 05:58:49;;;;;;;2.70;0.70;;;;;;;13.40;100.00;97544.22;5267272;28;20103;-73
2023/11/02 06:01:20;;;;;;;3.28;0.60;;;;;;;13.45;100.00;97549.63;5263692;28;20028;-73
2023/11/02 06:03:51;;;;;;;2.13;0.70;;;;;;;13.54;100.00;97523.78;5263868;28;20354;-74
2023/11/02 06:06:21;;;;;;;3.70;0.50;;;;;;;13.63;100.00;97516.81;5265082;28;20080;-74
2023/11/02 06:08:52;;;;;;;5.05;0.55;;;;;;;13.81;100.00;97506.63;5259330;28;20023;-73
2023/11/02 06:11:22;;;;;;;2.78;0.77;;;;;;;13.79;100.00;97497.97;5261249;28;20526;-73
2023/11/02 06:13:52;;;;;;;6.13;0.80;;;;;;;13.77;100.00;97484.78;5263271;28;20331;-73
2023/11/02 06:16:23;;;;;;;4.07;0.90;;;;;;;13.68;100.00;97465.66;5264559;28;20089;-73
2023/11/02 06:18:53;;;;;;;6.05;0.80;;;;;;;13.95;100.00;97478.03;5262660;28;20362;-74
2023/11/02 06:21:24;;;;;;;5.03;0.60;;;;;;;13.94;100.00;97469.16;5264045;28;20116;-73
2023/11/02 06:23:55;;;;;;;4.53;0.63;;;;;;;13.95;100.00;97440.31;5263118;28;20106;-73
2023/11/02 06:26:25;;;;;;;5.22;0.70;;;;;;;14.05;100.00;97407.97;5261424;28;20084;-73
2023/11/02 06:28:55;;;;;;;5.97;0.73;;;;;;;14.09;100.00;97400.16;5263187;28;20489;-73
2023/11/02 06:31:26;;;;;;;3.85;0.85;;;;;;;13.92;100.00;97409.34;5264207;28;20046;-74
2023/11/02 06:33:56;;;;;;;5.70;0.93;;;;;;;14.00;100.00;97411.47;5263330;28;20038;-74
2023/11/02 06:36:27;;;;;;;7.63;1.17;;;;;;;14.16;100.00;97404.19;5264004;28;20027;-73
2023/11/02 06:38:58;;;;;;;12.82;1.75;;;;;;;14.15;100.00;97421.41;5261926;28;20032;-73
2023/11/02 06:41:29;;;;;;;5.10;0.80;;;;;;;14.14;100.00;97430.59;5264000;28;20012;-74
2023/11/02 06:43:59;;;;;;;7.80;1.13;;;;;;;14.29;100.00;97423.56;5262880;28;20393;-73
2023/11/02 06:46:30;;;;;;;4.53;1.05;;;;;;;14.55;100.00;97435.09;5266465;28;20024;-73
2023/11/02 06:49:00;;;;;;;2.13;0.70;;;;;;;14.27;100.00;97436.50;5261176;28;20024;-74
2023/11/02 06:51:31;;;;;;;6.97;1.48;;;;;;;14.43;100.00;97440.78;5251484;28;20154;-73
2023/11/02 06:54:02;;;;;;;4.40;0.80;;;;;;;14.36;100.00;97426.78;5260069;28;20020;-74
2023/11/02 06:56:33;;;;;;;8.63;1.50;;;;;;;14.37;100.00;97406.81;5260977;28;20051;-74
2023/11/02 06:59:03;;;;;;;3.63;0.88;;;;;;;14.51;100.00;97410.59;5261327;28;20477;-73
2023/11/02 07:01:36;;;;;;;4.15;1.20;;;;;;;14.39;100.00;97410.03;5260353;28;20078;-73
2023/11/02 07:04:06;;;;;;;6.63;1.10;;;;;;;14.46;100.00;97394.41;5258610;28;20016;-74
2023/11/02 07:06:37;;;;;;;5.72;1.00;;;;;;;14.51;100.00;97378.22;5262090;28;20030;-74
2023/11/02 07:09:07;;;;;;;2.90;1.00;;;;;;;14.65;100.00;97408.09;5260788;28;20492;-74
2023/11/02 07:11:38;;;;;;;3.65;0.90;;;;;;;14.57;100.00;97389.81;5254736;28;20023;-73
2023/11/02 07:14:09;;;;;;;5.55;1.27;;;;;;;14.59;100.00;97387.63;5261015;28;20530;-74
2023/11/02 07:16:39;;;;;;;5.57;0.98;;;;;;;14.67;100.00;97378.97;5266301;28;20035;-73
2023/11/02 07:19:10;;;;;;;6.45;0.95;;;;;;;14.71;100.00;97378.13;5265977;28;21371;-73
2023/11/02 07:21:40;;;;;;;8.18;1.20;;;;;;;14.72;100.00;97384.34;5265928;28;20503;-74
2023/11/02 07:24:11;;;;;;;5.55;1.10;;;;;;;14.86;100.00;97385.34;5261513;28;20687;-73
2023/11/02 07:26:41;;;;;;;8.82;1.55;;;;;;;14.98;100.00;97390.41;5264059;28;20024;-74
2023/11/02 07:29:12;;;;;;;6.03;0.98;;;;;;;15.12;100.00;97401.41;5264855;28;20043;-74
2023/11/02 07:31:42;;;;;;;8.00;1.08;;;;;;;15.34;100.00;97382.88;5265525;27;20024;-73
2023/11/02 07:34:13;;;;;;;7.93;1.40;;;;;;;15.53;100.00;97374.91;5273962;28;20287;-72
2023/11/02 07:36:43;;;;;;;10.60;1.48;;;;;;;15.60;100.00;97375.38;5268335;28;20116;-76
2023/11/02 07:39:16;;;;;;;6.82;1.05;;;;;;;15.41;100.00;97399.59;5276796;28;20482;-74
2023/11/02 07:41:46;;;;;;;6.93;0.95;;;;;;;15.30;100.00;97365.63;5266493;28;20066;-74
2023/11/02 07:44:17;;;;;;;7.72;1.48;;;;;;;15.01;100.00;97365.56;5268820;28;20024;-74
2023/11/02 07:46:47;;;;;;;11.73;1.55;;;;;;;15.11;100.00;97370.91;5270279;28;20035;-77
2023/11/02 07:49:19;;;;;;;8.38;1.17;;;;;;;15.03;100.00;97358.00;5266733;28;20047;-74
2023/11/02 07:51:49;;;;;;;9.15;1.40;;;;;;;15.25;100.00;97361.06;5265310;28;20576;-76
2023/11/02 07:54:21;;;;;;;6.15;1.40;;;;;;;15.70;100.00;97363.72;5268757;28;20018;-74
2023/11/02 07:56:51;;;;;;;6.43;1.38;;;;;;;15.60;100.00;97371.88;5269299;28;20213;-74
2023/11/02 07:59:22;;;;;;;12.77;1.33;;;;;;;15.36;100.00;97356.41;5268642;28;20043;-73
2023/11/02 08:01:52;;;;;;;8.43;1.48;;;;;;;15.35;100.00;97359.38;5266203;28;20033;-75
2023/11/02 08:04:23;;;;;;;6.60;1.25;;;;;;;15.36;100.00;97361.00;5264766;28;20034;-73
2023/11/02 08:06:53;;;;;;;11.85;1.58;;;;;;;15.37;100.00;97362.63;5265519;28;20146;-73
2023/11/02 08:09:24;;;;;;;10.93;1.50;;;;;;;15.45;100.00;97367.41;5272454;28;20111;-73
2023/11/02 08:11:54;;;;;;;8.27;1.10;;;;;;;15.71;100.00;97352.66;5261845;28;20020;-76
2023/11/02 08:14:25;;;;;;;5.93;1.23;;;;;;;15.93;100.00;97356.75;5264549;28;20039;-76
2023/11/02 08:16:56;;;;;;;12.60;1.80;;;;;;;15.92;100.00;97344.34;5264850;28;20034;-76
2023/11/02 08:19:26;;;;;;;14.18;1.67;;;;;;;15.39;100.00;97336.13;5264956;28;20024;-77
2023/11/02 08:21:57;;;;;;;14.80;1.90;;;;;;;15.38;100.00;97339.94;5268977;28;20023;-75
2023/11/02 08:24:27;;;;;;;18.00;1.48;;;;;;;15.43;100.00;97337.19;5261204;28;20047;-76
2023/11/02 08:26:58;;;;;;;9.07;1.42;;;;;;;15.37;100.00;97341.81;5259091;28;20051;-74
2023/11/02 08:29:28;;;;;;;9.68;2.10;;;;;;;15.70;100.00;97332.09;5263361;28;20044;-74
2023/11/02 08:31:59;;;;;;;10.27;1.58;;;;;;;15.68;100.00;97320.78;5260152;28;20048;-76
2023/11/02 08:34:29;;;;;;;13.25;1.70;;;;;;;15.70;100.00;97321.28;5263878;28;20137;-73
2023/11/02 08:37:00;;;;;;;9.18;1.55;;;;;;;15.89;100.00;97307.06;5265467;28;20706;-74
2023/11/02 08:39:30;;;;;;;9.00;1.23;;;;;;;16.15;100.00;97311.09;5263881;28;20401;-74
2023/11/02 08:42:02;;;;;;;14.02;1.58;;;;;;;16.29;100.00;97289.56;5261349;28;20485;-74
2023/11/02 08:44:32;;;;;;;13.75;1.52;;;;;;;16.23;100.00;97296.94;5263159;28;20024;-74
2023/11/02 08:47:03;;;;;;;9.10;1.73;;;;;;;16.07;100.00;97297.41;5262042;28;20362;-74
2023/11/02 08:49:37;;;;;;;14.13;1.75;;;;;;;16.33;100.00;97285.19;5263508;28;20023;-73
2023/11/02 08:52:07;;;;;;;9.55;1.50;;;;;;;16.58;100.00;97275.94;5261986;28;20104;-74
2023/11/02 08:54:38;;;;;;;9.27;1.48;;;;;;;16.63;100.00;97264.25;5268868;28;20098;-73
2023/11/02 08:57:08;;;;;;;11.52;1.83;;;;;;;16.51;100.00;97270.88;5267143;28;20077;-74
2023/11/02 08:59:38;;;;;;;11.13;1.83;;;;;;;16.52;100.00;97250.84;5268961;28;20027;-75
2023/11/02 09:02:10;;;;;;;12.77;2.05;;;;;;;16.18;100.00;97293.50;5263115;28;20115;-76
2023/11/02 09:04:40;;;;;;;12.73;2.22;;;;;;;16.07;100.00;97264.97;5265576;28;20020;-76
2023/11/02 09:07:11;;;;;;;8.52;1.60;;;;;;;16.02;100.00;97260.44;5264953;28;20047;-73
2023/11/02 09:09:41;;;;;;;14.38;1.60;;;;;;;16.26;100.00;97258.47;5265867;28;20016;-75
2023/11/02 09:12:12;;;;;;;7.65;1.58;;;;;;;16.39;100.00;97262.38;5262694;28;20024;-73
2023/11/02 09:14:42;;;;;;;9.13;1.38;;;;;;;16.39;100.00;97253.47;5260243;28;20016;-73
2023/11/02 09:17:13;;;;;;;20.95;2.30;;;;;;;16.29;100.00;97260.63;5270392;28;20024;-74
2023/11/02 09:19:43;;;;;;;10.52;1.95;;;;;;;16.31;100.00;97266.56;5266522;28;20039;-74
2023/11/02 09:22:14;;;;;;;10.45;1.77;;;;;;;16.21;100.00;97273.97;5264366;28;20031;-74
2023/11/02 09:24:45;;;;;;;11.63;1.77;;;;;;;16.19;100.00;97271.56;5263994;28;20114;-74
2023/11/02 09:27:15;;;;;;;6.70;1.45;;;;;;;15.91;100.00;97246.19;5270793;28;20045;-76
2023/11/02 09:29:46;;;;;;;8.50;1.40;;;;;;;15.86;100.00;97253.56;5269439;28;20016;-75
2023/11/02 09:32:17;;;;;;;9.90;1.42;;;;;;;16.01;100.00;97264.19;5270854;28;20017;-74
2023/11/02 09:34:47;;;;;;;10.27;2.60;;;;;;;15.91;100.00;97261.63;5268520;28;20031;-74
2023/11/02 09:37:18;;;;;;;15.48;2.05;;;;;;;15.82;100.00;97269.56;5267171;28;20465;-74
2023/11/02 09:39:49;;;;;;;10.75;1.70;;;;;;;15.87;100.00;97263.31;5270095;28;20513;-73
2023/11/02 09:42:21;;;;;;;6.93;1.60;;;;;;;15.87;100.00;97260.59;5269918;28;20099;-73
2023/11/02 09:44:52;;;;;;;11.77;1.77;;;;;;;15.72;100.00;97267.78;5268553;28;20020;-73
2023/11/02 09:47:23;;;;;;;18.20;2.53;;;;;;;16.03;100.00;97262.84;5266706;28;20150;-73
2023/11/02 09:49:54;;;;;;;11.90;1.80;;;;;;;16.24;100.00;97282.31;5263152;28;20102;-73
2023/11/02 09:52:24;;;;;;;8.88;1.77;;;;;;;16.23;100.00;97252.88;5265042;28;20028;-73
2023/11/02 09:54:55;;;;;;;30.70;2.90;;;;;;;16.11;100.00;97263.28;5269452;28;20052;-73
2023/11/02 09:57:26;;;;;;;9.45;1.83;;;;;;;15.63;100.00;97260.56;5264306;28;20020;-73
2023/11/02 09:59:58;;;;;;;13.10;3.40;;;;;;;15.51;100.00;97267.16;5265756;28;20023;-74
2023/11/02 10:02:29;;;;;;;9.70;1.70;;;;;;;15.70;100.00;97256.44;5266551;28;20027;-74
2023/11/02 10:04:59;;;;;;;13.10;2.35;;;;;;;15.79;100.00;97270.94;5263950;28;20027;-73
2023/11/02 10:07:30;;;;;;;9.05;1.80;;;;;;;16.02;100.00;97279.34;5262806;28;20081;-73
2023/11/02 10:10:01;;;;;;;11.93;2.40;;;;;;;15.77;100.00;97269.63;5263036;28;20101;-74
2023/11/02 10:12:37;;;;;;;11.32;1.83;;;;;;;16.07;100.00;97254.97;5256806;28;20032;-73
2023/11/02 10:15:11;;;;;;;13.10;1.48;;;;;;;16.24;100.00;97243.66;5265286;28;20030;-73
2023/11/02 10:17:41;;;;;;;14.93;2.38;;;;;;;16.47;100.00;97242.00;5262122;28;20142;-73
2023/11/02 10:20:13;;;;;;;11.00;2.15;;;;;;;16.31;100.00;97265.72;5264311;28;20632;-73
2023/11/02 10:23:01;;;;;;;10.68;2.67;;;;;;;16.23;100.00;97258.28;5262956;28;20506;-73
2023/11/02 10:25:31;;;;;;;10.38;1.90;;;;;;;16.11;100.00;97255.97;5262639;28;20042;-73
2023/11/02 10:28:03;;;;;;;16.48;2.08;;;;;;;15.95;100.00;97249.13;5260773;28;20036;-73
2023/11/02 10:30:33;;;;;;;10.13;1.90;;;;;;;15.93;100.00;97238.63;5263596;28;20021;-73
2023/11/02 10:33:06;;;;;;;10.48;1.63;;;;;;;15.96;100.00;97245.34;5265824;28;20028;-73
2023/11/02 10:35:39;;;;;;;8.88;1.58;;;;;;;16.10;100.00;97240.84;5257017;28;20016;-73
2023/11/02 10:38:11;;;;;;;6.82;1.60;;;;;;;15.86;100.00;97230.03;5271501;28;20020;-74
2023/11/02 10:40:44;;;;;;;9.30;1.75;;;;;;;16.16;100.00;97249.69;5266171;28;20404;-73
2023/11/02 10:43:18;;;;;;;15.93;1.95;;;;;;;15.88;100.00;97227.06;5265383;28;20027;-73
2023/11/02 10:45:52;;;;;;;12.43;1.80;;;;;;;15.97;100.00;97242.38;5268576;28;20655;-73
2023/11/02 10:48:26;;;;;;;16.10;1.67;;;;;;;15.60;100.00;97277.31;5270313;28;20107;-73
2023/11/02 10:50:59;;;;;;;10.23;1.30;;;;;;;15.24;100.00;97264.16;5262991;28;20016;-73
2023/11/02 10:53:58;;;;;;;11.95;1.48;;;;;;;14.89;100.00;97286.81;5265326;28;20466;-73
2023/11/02 10:56:39;;;;;;;14.10;2.38;;;;;;;14.89;100.00;97276.84;5258881;28;20024;-73
2023/11/02 10:59:10;;;;;;;7.75;1.45;;;;;;;14.82;100.00;97287.16;5261665;28;20019;-73
2023/11/02 11:01:41;;;;;;;9.07;1.70;;;;;;;15.00;100.00;97274.88;5265216;28;20488;-73
2023/11/02 11:04:13;;;;;;;13.90;2.40;;;;;;;15.06;100.00;97276.47;5264467;28;20663;-73
2023/11/02 11:06:45;;;;;;;16.73;1.80;;;;;;;15.09;100.00;97243.47;5265836;28;20020;-73
2023/11/02 11:09:16;;;;;;;8.15;1.83;;;;;;;15.32;100.00;97241.13;5260200;28;20055;-73
2023/11/02 11:11:48;;;;;;;5.70;1.42;;;;;;;15.46;100.00;97224.00;5259463;28;20024;-73
2023/11/02 11:14:20;;;;;;;13.70;2.83;;;;;;;15.43;100.00;97229.94;5261541;28;20481;-73
2023/11/02 11:16:55;;;;;;;11.38;1.92;;;;;;;15.61;100.00;97208.69;5265391;28;20099;-74
2023/11/02 11:19:31;;;;;;;16.17;2.10;;;;;;;15.23;100.00;97209.34;5261855;28;20026;-73
2023/11/02 11:22:09;;;;;;;10.75;2.10;;;;;;;15.30;100.00;97203.59;5260030;28;20036;-73
2023/11/02 11:24:40;;;;;;;14.07;2.13;;;;;;;15.53;100.00;97200.13;5256714;28;20430;-74
2023/11/02 11:27:11;;;;;;;11.02;2.75;;;;;;;15.59;100.00;97184.66;5261080;28;20026;-74
2023/11/02 11:29:42;;;;;;;11.85;2.42;;;;;;;15.68;100.00;97166.75;5265596;28;20024;-74
2023/11/02 11:32:31;;;;;;;12.02;2.00;;;;;;;15.64;100.00;97163.03;5261924;28;20456;-76
2023/11/02 11:35:08;;;;;;;13.77;2.33;;;;;;;15.37;100.00;97176.28;5255113;28;20020;-76
2023/11/02 11:37:42;;;;;;;15.25;2.58;;;;;;;15.20;100.00;97104.59;5259868;28;20024;-75
2023/11/02 11:40:19;;;;;;;10.65;1.65;;;;;;;15.22;100.00;97185.34;5260263;28;20024;-75
2023/11/02 11:42:53;;;;;;;10.02;1.55;;;;;;;15.23;100.00;97170.75;5259032;28;20657;-74
2023/11/02 11:45:25;;;;;;;8.88;1.73;;;;;;;15.16;100.00;97170.25;5262324;28;20027;-74
2023/11/02 11:47:57;;;;;;;9.98;2.13;;;;;;;15.25;100.00;97196.34;5256968;28;20036;-74
2023/11/02 11:50:30;;;;;;;13.85;1.42;;;;;;;14.89;100.00;97214.75;5260072;28;20546;-74
2023/11/02 11:53:10;;;;;;;6.63;1.80;;;;;;;15.21;100.00;97210.69;5258947;28;20027;-76
2023/11/02 11:55:43;;;;;;;13.52;1.58;;;;;;;15.07;100.00;97207.06;5258362;28;20036;-74
2023/11/02 11:58:15;;;;;;;20.15;2.08;;;;;;;15.15;100.00;97209.16;5260405;28;20036;-74